Time;durP1;ratioP1;P1;durP2;ratioP2;P2;SDS_P1;SDS_P2;PMS_P1;PMS_P2;Temp;Humidity;BMP_temperature;BMP_pressure;BME280_temperature;BME280_humidity;BME280_pressure;Samples;Min_cycle;Max_cycle;Signal;HPM_P1;HPM_P2
2023/12/18 00:00:49;;;;;;;22.73;8.87;;;;;;;;;;5086649;28;20524;-67
2023/12/18 00:03:14;;;;;;;26.93;10.67;;;;;;;;;;5086682;28;20035;-67
2023/12/18 00:05:40;;;;;;;22.00;10.27;;;;;;;;;;5086773;28;20111;-67
2023/12/18 00:08:05;;;;;;;27.97;10.63;;;;;;;;;;5086036;28;20024;-67
2023/12/18 00:10:31;;;;;;;29.03;10.43;;;;;;;;;;5085586;28;20052;-66
2023/12/18 00:12:56;;;;;;;23.67;11.30;;;;;;;;;;5086482;28;20028;-67
2023/12/18 00:15:21;;;;;;;29.73;11.30;;;;;;;;;;5086194;28;20032;-67
2023/12/18 00:17:46;;;;;;;23.47;10.57;;;;;;;;;;5083984;28;20120;-67
2023/12/18 00:20:12;;;;;;;29.13;11.30;;;;;;;;;;5086323;28;20054;-66
2023/12/18 00:22:37;;;;;;;29.00;11.50;;;;;;;;;;5085786;28;20032;-66
2023/12/18 00:25:02;;;;;;;25.70;10.57;;;;;;;;;;5082857;28;20043;-66
2023/12/18 00:27:28;;;;;;;26.63;11.00;;;;;;;;;;5084401;28;20361;-63
2023/12/18 00:29:53;;;;;;;29.00;10.17;;;;;;;;;;5086304;28;20111;-64
2023/12/18 00:32:18;;;;;;;22.47;9.23;;;;;;;;;;5082941;28;20032;-65
2023/12/18 00:34:43;;;;;;;25.83;10.30;;;;;;;;;;5085179;28;20361;-63
2023/12/18 00:37:09;;;;;;;29.47;10.50;;;;;;;;;;5085489;28;20077;-63
2023/12/18 00:39:34;;;;;;;28.37;11.50;;;;;;;;;;5080350;28;20035;-64
2023/12/18 00:42:00;;;;;;;25.23;11.47;;;;;;;;;;5085247;28;20024;-63
2023/12/18 00:44:25;;;;;;;30.63;12.13;;;;;;;;;;5090234;28;20020;-63
2023/12/18 00:46:50;;;;;;;20.57;8.77;;;;;;;;;;5087495;28;20150;-65
2023/12/18 00:49:16;;;;;;;26.07;11.50;;;;;;;;;;5086238;28;20044;-63
2023/12/18 00:51:41;;;;;;;26.57;11.47;;;;;;;;;;5093142;28;20139;-63
2023/12/18 00:54:07;;;;;;;35.07;12.03;;;;;;;;;;5088545;28;20507;-63
2023/12/18 00:56:33;;;;;;;25.90;11.37;;;;;;;;;;5092066;28;20032;-63
2023/12/18 00:58:58;;;;;;;41.10;12.13;;;;;;;;;;5081044;28;20032;-62
2023/12/18 01:01:24;;;;;;;30.00;11.97;;;;;;;;;;5086893;28;20038;-63
2023/12/18 01:03:49;;;;;;;32.13;12.17;;;;;;;;;;5091725;28;20036;-64
2023/12/18 01:06:14;;;;;;;29.87;11.80;;;;;;;;;;5092038;28;20114;-63
2023/12/18 01:08:39;;;;;;;33.23;12.70;;;;;;;;;;5093829;28;20040;-64
2023/12/18 01:11:05;;;;;;;28.60;11.73;;;;;;;;;;5083764;28;20040;-62
2023/12/18 01:13:30;;;;;;;24.37;11.97;;;;;;;;;;5083301;28;20028;-63
2023/12/18 01:15:56;;;;;;;33.20;12.73;;;;;;;;;;5084511;28;20366;-63
2023/12/18 01:18:22;;;;;;;28.37;11.67;;;;;;;;;;5087433;28;20583;-64
2023/12/18 01:20:47;;;;;;;26.07;11.57;;;;;;;;;;5089484;28;20038;-67
2023/12/18 01:23:12;;;;;;;32.77;12.00;;;;;;;;;;5083354;28;20079;-64
2023/12/18 01:25:38;;;;;;;32.47;12.37;;;;;;;;;;5085029;28;20032;-63
2023/12/18 01:28:03;;;;;;;25.87;12.20;;;;;;;;;;5082176;28;20036;-66
2023/12/18 01:30:28;;;;;;;32.40;12.57;;;;;;;;;;5086302;28;20421;-63
2023/12/18 01:32:54;;;;;;;27.33;11.77;;;;;;;;;;5083216;28;20040;-63
2023/12/18 01:35:19;;;;;;;26.37;12.70;;;;;;;;;;5086817;28;20441;-63
2023/12/18 01:37:44;;;;;;;28.13;13.10;;;;;;;;;;5081871;28;20035;-63
2023/12/18 01:40:10;;;;;;;29.33;13.17;;;;;;;;;;5081935;28;20767;-63
2023/12/18 01:42:35;;;;;;;27.80;12.20;;;;;;;;;;5084907;28;20055;-63
2023/12/18 01:45:00;;;;;;;26.13;10.63;;;;;;;;;;5083300;28;20519;-64
2023/12/18 01:47:26;;;;;;;31.60;13.13;;;;;;;;;;5083504;28;20051;-62
2023/12/18 01:49:51;;;;;;;25.70;10.97;;;;;;;;;;5081307;28;20043;-64
2023/12/18 01:52:17;;;;;;;30.03;12.50;;;;;;;;;;5082087;28;20403;-62
2023/12/18 01:54:43;;;;;;;36.23;13.40;;;;;;;;;;5085168;28;20032;-63
2023/12/18 01:57:08;;;;;;;38.83;14.80;;;;;;;;;;5083476;28;20089;-63
2023/12/18 01:59:34;;;;;;;33.77;14.20;;;;;;;;;;5083183;28;20414;-62
2023/12/18 02:01:59;;;;;;;32.87;12.93;;;;;;;;;;5084548;28;20050;-62
2023/12/18 02:04:25;;;;;;;34.60;14.17;;;;;;;;;;5084666;28;20077;-62
2023/12/18 02:06:51;;;;;;;30.20;13.57;;;;;;;;;;5081506;28;20020;-63
2023/12/18 02:09:16;;;;;;;33.13;13.70;;;;;;;;;;5084405;28;20020;-63
2023/12/18 02:11:43;;;;;;;30.73;11.83;;;;;;;;;;5083335;28;20043;-63
2023/12/18 02:14:08;;;;;;;33.73;13.87;;;;;;;;;;5084345;28;20028;-63
2023/12/18 02:16:33;;;;;;;34.40;14.27;;;;;;;;;;5084115;28;20024;-63
2023/12/18 02:18:59;;;;;;;33.27;13.07;;;;;;;;;;5084526;28;20063;-63
2023/12/18 02:21:24;;;;;;;31.97;14.47;;;;;;;;;;5084337;28;20042;-62
2023/12/18 02:23:50;;;;;;;33.93;14.23;;;;;;;;;;5080874;28;20039;-62
2023/12/18 02:26:15;;;;;;;32.27;14.00;;;;;;;;;;5083076;28;20040;-63
2023/12/18 02:28:41;;;;;;;38.73;14.30;;;;;;;;;;5083081;28;20111;-63
2023/12/18 02:31:07;;;;;;;38.30;15.50;;;;;;;;;;5083803;28;20028;-63
2023/12/18 02:33:32;;;;;;;31.67;14.13;;;;;;;;;;5082847;28;20028;-62
2023/12/18 02:35:58;;;;;;;30.53;13.13;;;;;;;;;;5082406;28;20016;-62
2023/12/18 02:38:23;;;;;;;36.10;15.10;;;;;;;;;;5083081;28;20297;-63
2023/12/18 02:40:48;;;;;;;40.20;14.83;;;;;;;;;;5064886;28;20048;-63
2023/12/18 02:43:13;;;;;;;34.97;14.70;;;;;;;;;;5063914;28;20036;-62
2023/12/18 02:45:39;;;;;;;39.27;14.97;;;;;;;;;;5061611;28;20061;-62
2023/12/18 02:48:04;;;;;;;42.80;15.47;;;;;;;;;;5064938;28;20090;-61
2023/12/18 02:50:29;;;;;;;39.53;15.07;;;;;;;;;;5064619;28;20481;-63
2023/12/18 02:52:55;;;;;;;37.07;14.63;;;;;;;;;;5068729;28;20036;-63
2023/12/18 02:55:20;;;;;;;38.13;14.70;;;;;;;;;;5067641;28;20076;-63
2023/12/18 02:57:45;;;;;;;43.17;15.23;;;;;;;;;;5066110;28;20152;-63
2023/12/18 03:00:11;;;;;;;36.00;14.20;;;;;;;;;;5067693;28;20036;-63
2023/12/18 03:02:37;;;;;;;34.77;15.27;;;;;;;;;;5066959;28;20779;-63
2023/12/18 03:05:02;;;;;;;36.77;15.07;;;;;;;;;;5065750;28;20111;-63
2023/12/18 03:07:27;;;;;;;40.90;15.43;;;;;;;;;;5065436;28;20178;-62
2023/12/18 03:09:53;;;;;;;42.87;15.97;;;;;;;;;;5066141;28;20044;-63
2023/12/18 03:12:18;;;;;;;36.53;15.53;;;;;;;;;;5066970;28;20028;-63
2023/12/18 03:14:43;;;;;;;37.50;16.53;;;;;;;;;;5068653;28;20028;-62
2023/12/18 03:17:08;;;;;;;46.30;17.37;;;;;;;;;;5067334;28;20078;-63
2023/12/18 03:19:34;;;;;;;41.17;16.80;;;;;;;;;;5066356;28;20117;-63
2023/12/18 03:21:59;;;;;;;39.80;17.17;;;;;;;;;;5066872;28;20029;-63
2023/12/18 03:24:25;;;;;;;39.00;15.47;;;;;;;;;;5065983;28;20028;-63
2023/12/18 03:26:50;;;;;;;45.23;17.40;;;;;;;;;;5069210;28;20036;-63
2023/12/18 03:29:15;;;;;;;40.23;17.57;;;;;;;;;;5068243;28;20039;-63
2023/12/18 03:31:40;;;;;;;50.07;18.57;;;;;;;;;;5067321;28;20055;-63
2023/12/18 03:34:05;;;;;;;39.80;15.67;;;;;;;;;;5066435;28;20055;-63
2023/12/18 03:36:31;;;;;;;34.73;14.43;;;;;;;;;;5066948;28;20108;-63
2023/12/18 03:38:56;;;;;;;45.90;18.57;;;;;;;;;;5072295;28;20043;-63
2023/12/18 03:41:21;;;;;;;43.90;17.20;;;;;;;;;;5087252;28;20024;-63
2023/12/18 03:43:47;;;;;;;39.13;14.30;;;;;;;;;;5087227;28;20123;-63
2023/12/18 03:46:12;;;;;;;43.07;18.17;;;;;;;;;;5085667;28;20062;-63
2023/12/18 03:48:37;;;;;;;47.37;17.87;;;;;;;;;;5085421;28;20078;-63
2023/12/18 03:51:02;;;;;;;46.63;18.77;;;;;;;;;;5086781;28;20397;-64
2023/12/18 03:53:28;;;;;;;49.90;18.87;;;;;;;;;;5086659;28;20074;-63
2023/12/18 03:55:53;;;;;;;51.50;17.60;;;;;;;;;;5082529;28;20034;-62
2023/12/18 03:58:18;;;;;;;41.70;17.87;;;;;;;;;;5086525;28;20101;-63
2023/12/18 04:00:44;;;;;;;43.17;17.87;;;;;;;;;;5084692;28;20044;-63
2023/12/18 04:03:09;;;;;;;48.03;19.50;;;;;;;;;;5085145;28;20460;-62
2023/12/18 04:05:34;;;;;;;42.63;18.03;;;;;;;;;;5085656;28;20030;-63
2023/12/18 04:08:00;;;;;;;46.00;19.13;;;;;;;;;;5086254;28;20028;-63
2023/12/18 04:10:25;;;;;;;44.77;18.63;;;;;;;;;;5086450;28;20365;-63
2023/12/18 04:12:51;;;;;;;44.60;17.13;;;;;;;;;;5086454;28;20111;-62
2023/12/18 04:15:16;;;;;;;48.50;18.03;;;;;;;;;;5086023;28;20027;-64
2023/12/18 04:17:41;;;;;;;42.07;17.47;;;;;;;;;;5085936;28;20065;-63
2023/12/18 04:20:07;;;;;;;46.57;18.50;;;;;;;;;;5084636;28;20024;-63
2023/12/18 04:22:32;;;;;;;51.87;18.87;;;;;;;;;;5085155;28;20066;-63
2023/12/18 04:24:57;;;;;;;53.20;18.23;;;;;;;;;;5083997;28;20608;-63
2023/12/18 04:27:23;;;;;;;46.43;18.40;;;;;;;;;;5085461;28;20036;-63
2023/12/18 04:29:48;;;;;;;43.87;18.37;;;;;;;;;;5085928;28;20094;-63
2023/12/18 04:32:13;;;;;;;49.40;16.53;;;;;;;;;;5083788;28;20028;-63
2023/12/18 04:34:39;;;;;;;45.70;19.07;;;;;;;;;;5084750;28;20090;-62
2023/12/18 04:37:05;;;;;;;47.87;18.13;;;;;;;;;;5085300;28;20055;-63
2023/12/18 04:39:30;;;;;;;45.70;17.23;;;;;;;;;;5085077;28;20048;-62
2023/12/18 04:41:55;;;;;;;44.87;17.37;;;;;;;;;;5086105;28;20032;-62
2023/12/18 04:44:21;;;;;;;46.67;18.37;;;;;;;;;;5084977;28;20039;-63
2023/12/18 04:46:47;;;;;;;44.83;18.20;;;;;;;;;;5085750;28;20384;-63
2023/12/18 04:49:13;;;;;;;43.10;18.53;;;;;;;;;;5084549;28;20044;-62
2023/12/18 04:51:38;;;;;;;42.47;18.50;;;;;;;;;;5085696;28;20028;-63
2023/12/18 04:54:03;;;;;;;42.57;17.13;;;;;;;;;;5080353;28;20040;-62
2023/12/18 04:56:28;;;;;;;41.33;18.10;;;;;;;;;;5083725;28;20093;-64
2023/12/18 04:58:54;;;;;;;47.53;18.60;;;;;;;;;;5084183;28;20469;-63
2023/12/18 05:01:19;;;;;;;48.53;18.00;;;;;;;;;;5084116;28;20110;-62
2023/12/18 05:03:44;;;;;;;44.00;17.17;;;;;;;;;;5085725;28;20040;-63
2023/12/18 05:06:20;;;;;;;43.90;17.07;;;;;;;;;;5084633;28;20028;-63
2023/12/18 05:08:45;;;;;;;46.40;17.90;;;;;;;;;;5084263;28;20036;-62
2023/12/18 05:11:10;;;;;;;42.87;17.10;;;;;;;;;;5081712;28;20032;-63
2023/12/18 05:13:36;;;;;;;35.50;15.47;;;;;;;;;;5080883;28;20316;-62
2023/12/18 05:16:01;;;;;;;34.50;15.27;;;;;;;;;;5084998;28;20150;-64
2023/12/18 05:18:26;;;;;;;41.80;17.40;;;;;;;;;;5084469;28;20035;-63
2023/12/18 05:20:53;;;;;;;47.17;18.03;;;;;;;;;;5085261;28;20052;-63
2023/12/18 05:23:18;;;;;;;44.73;17.63;;;;;;;;;;5084699;28;20100;-62
2023/12/18 05:25:44;;;;;;;56.07;18.83;;;;;;;;;;5084780;28;20040;-63
2023/12/18 05:28:09;;;;;;;33.83;14.27;;;;;;;;;;5085032;28;20036;-63
2023/12/18 05:30:36;;;;;;;42.73;18.30;;;;;;;;;;5083409;28;20032;-62
2023/12/18 05:33:02;;;;;;;41.07;17.43;;;;;;;;;;5082601;28;20035;-62
2023/12/18 05:35:27;;;;;;;49.23;17.97;;;;;;;;;;5084169;28;20028;-63
2023/12/18 05:37:52;;;;;;;41.40;17.80;;;;;;;;;;5084536;28;20722;-63
2023/12/18 05:40:18;;;;;;;43.63;16.13;;;;;;;;;;5085311;28;20416;-62
2023/12/18 05:42:43;;;;;;;39.23;15.57;;;;;;;;;;5085436;28;20048;-63
2023/12/18 05:45:08;;;;;;;36.03;15.13;;;;;;;;;;5088233;28;20040;-63
2023/12/18 05:47:34;;;;;;;42.80;16.20;;;;;;;;;;5078849;28;20036;-62
2023/12/18 05:49:59;;;;;;;40.63;17.23;;;;;;;;;;5082999;28;20074;-63
2023/12/18 05:52:25;;;;;;;40.43;18.17;;;;;;;;;;5081073;28;20044;-63
2023/12/18 05:54:50;;;;;;;46.67;18.40;;;;;;;;;;5080437;28;20031;-63
2023/12/18 05:57:16;;;;;;;38.70;16.70;;;;;;;;;;5088051;28;20097;-63
2023/12/18 05:59:42;;;;;;;41.80;17.77;;;;;;;;;;5088361;28;20044;-62
2023/12/18 06:02:07;;;;;;;37.57;16.23;;;;;;;;;;5079235;28;20058;-64
2023/12/18 06:04:32;;;;;;;41.37;17.47;;;;;;;;;;5084670;28;20032;-62
2023/12/18 06:06:58;;;;;;;38.93;18.00;;;;;;;;;;5087610;28;20035;-62
2023/12/18 06:09:23;;;;;;;42.73;17.70;;;;;;;;;;5088311;28;20046;-62
2023/12/18 06:11:48;;;;;;;39.27;18.10;;;;;;;;;;5081390;28;20040;-62
2023/12/18 06:14:13;;;;;;;39.50;18.30;;;;;;;;;;5084594;28;20036;-62
2023/12/18 06:16:39;;;;;;;43.63;16.97;;;;;;;;;;5081653;28;20033;-62
2023/12/18 06:19:04;;;;;;;41.13;15.70;;;;;;;;;;5084805;28;20035;-64
2023/12/18 06:21:29;;;;;;;38.67;18.07;;;;;;;;;;5087878;28;20028;-64
2023/12/18 06:23:56;;;;;;;37.60;17.07;;;;;;;;;;5084496;28;20058;-63
2023/12/18 06:26:21;;;;;;;39.47;15.97;;;;;;;;;;5092959;28;20066;-64
2023/12/18 06:28:46;;;;;;;37.77;17.10;;;;;;;;;;5090655;28;20175;-63
2023/12/18 06:31:12;;;;;;;41.70;16.90;;;;;;;;;;5085301;28;20047;-64
2023/12/18 06:33:37;;;;;;;30.37;13.60;;;;;;;;;;5089363;28;20464;-65
2023/12/18 06:36:02;;;;;;;37.50;16.30;;;;;;;;;;5094689;28;20117;-63
2023/12/18 06:38:28;;;;;;;37.63;17.33;;;;;;;;;;5092930;28;20044;-63
2023/12/18 06:40:53;;;;;;;37.33;16.43;;;;;;;;;;5088761;28;20055;-64
2023/12/18 06:43:18;;;;;;;38.43;16.63;;;;;;;;;;5087703;28;20262;-63
2023/12/18 06:45:44;;;;;;;37.40;16.33;;;;;;;;;;5088550;28;20032;-63
2023/12/18 06:48:09;;;;;;;37.47;16.97;;;;;;;;;;5089165;28;20056;-63
2023/12/18 06:50:34;;;;;;;36.23;16.33;;;;;;;;;;5087975;28;20118;-64
2023/12/18 06:53:00;;;;;;;35.67;15.93;;;;;;;;;;5087019;28;20407;-64
2023/12/18 06:55:26;;;;;;;35.03;16.67;;;;;;;;;;5088030;28;20032;-63
2023/12/18 06:57:51;;;;;;;40.33;17.73;;;;;;;;;;5088428;28;20097;-63
2023/12/18 07:00:16;;;;;;;39.73;16.23;;;;;;;;;;5088199;28;20127;-64
2023/12/18 07:02:41;;;;;;;48.20;18.17;;;;;;;;;;5088096;28;20171;-63
2023/12/18 07:05:07;;;;;;;37.87;15.43;;;;;;;;;;5082639;28;20138;-64
2023/12/18 07:07:32;;;;;;;42.13;16.43;;;;;;;;;;5084531;28;20051;-63
2023/12/18 07:09:57;;;;;;;33.20;14.00;;;;;;;;;;5087988;28;20049;-64
2023/12/18 07:12:23;;;;;;;32.83;14.20;;;;;;;;;;5088510;28;20024;-63
2023/12/18 07:14:48;;;;;;;42.20;17.07;;;;;;;;;;5087613;28;20032;-63
2023/12/18 07:17:13;;;;;;;39.73;16.70;;;;;;;;;;5087958;28;20024;-64
2023/12/18 07:19:41;;;;;;;37.47;16.57;;;;;;;;;;5087797;28;20028;-64
2023/12/18 07:22:07;;;;;;;41.80;17.03;;;;;;;;;;5088018;28;20032;-63
2023/12/18 07:24:32;;;;;;;40.77;17.07;;;;;;;;;;5087399;28;20229;-63
2023/12/18 07:26:57;;;;;;;38.87;15.23;;;;;;;;;;5086692;28;20055;-64
2023/12/18 07:29:22;;;;;;;39.53;16.13;;;;;;;;;;5087362;28;20044;-64
2023/12/18 07:31:48;;;;;;;37.30;17.27;;;;;;;;;;5087144;28;20038;-63
2023/12/18 07:34:13;;;;;;;40.10;15.60;;;;;;;;;;5087949;28;20032;-63
2023/12/18 07:36:40;;;;;;;40.43;15.07;;;;;;;;;;5087738;28;20028;-64
2023/12/18 07:39:05;;;;;;;42.73;18.10;;;;;;;;;;5087848;28;20044;-64
2023/12/18 07:41:31;;;;;;;37.53;15.17;;;;;;;;;;5089758;28;20446;-64
2023/12/18 07:43:56;;;;;;;45.53;15.63;;;;;;;;;;5088167;28;20063;-64
2023/12/18 07:46:23;;;;;;;42.37;17.97;;;;;;;;;;5088093;28;20583;-63
2023/12/18 07:48:48;;;;;;;42.40;16.17;;;;;;;;;;5086594;28;20439;-63
2023/12/18 07:51:14;;;;;;;41.00;16.40;;;;;;;;;;5088030;28;20036;-63
2023/12/18 07:53:39;;;;;;;39.10;16.43;;;;;;;;;;5088102;28;20032;-64
2023/12/18 07:56:04;;;;;;;44.60;17.53;;;;;;;;;;5086236;28;20279;-63
2023/12/18 07:58:30;;;;;;;38.97;16.80;;;;;;;;;;5087649;28;20498;-63
2023/12/18 08:00:55;;;;;;;41.27;16.90;;;;;;;;;;5085910;28;20628;-64
2023/12/18 08:03:20;;;;;;;38.70;18.13;;;;;;;;;;5087541;28;20075;-64
2023/12/18 08:05:46;;;;;;;44.33;18.10;;;;;;;;;;5087141;28;20044;-64
2023/12/18 08:08:11;;;;;;;33.87;14.80;;;;;;;;;;5087199;28;20384;-64
2023/12/18 08:10:36;;;;;;;42.83;17.80;;;;;;;;;;5086775;28;20063;-64
2023/12/18 08:13:02;;;;;;;34.57;14.50;;;;;;;;;;5086771;28;20039;-64
2023/12/18 08:15:27;;;;;;;40.97;17.00;;;;;;;;;;5086714;28;20371;-64
2023/12/18 08:17:52;;;;;;;42.13;17.93;;;;;;;;;;5086934;28;20050;-64
2023/12/18 08:20:18;;;;;;;46.53;17.87;;;;;;;;;;5086445;28;20139;-64
2023/12/18 08:22:43;;;;;;;51.53;19.47;;;;;;;;;;5086671;28;20048;-64
2023/12/18 08:25:08;;;;;;;41.33;17.20;;;;;;;;;;5085956;28;20419;-64
2023/12/18 08:27:34;;;;;;;42.20;17.10;;;;;;;;;;5085629;28;20032;-64
2023/12/18 08:29:59;;;;;;;47.17;16.03;;;;;;;;;;5087225;28;20101;-64
2023/12/18 08:32:25;;;;;;;38.73;16.53;;;;;;;;;;5086124;28;20111;-65
2023/12/18 08:34:50;;;;;;;42.10;16.67;;;;;;;;;;5087214;28;20028;-64
2023/12/18 08:37:15;;;;;;;41.97;17.20;;;;;;;;;;5086067;28;20044;-64
2023/12/18 08:39:41;;;;;;;40.00;18.03;;;;;;;;;;5086810;28;20048;-62
2023/12/18 08:42:06;;;;;;;40.03;16.67;;;;;;;;;;5083034;28;20311;-63
2023/12/18 08:44:32;;;;;;;39.47;16.87;;;;;;;;;;5087244;28;20036;-62
2023/12/18 08:46:58;;;;;;;37.93;16.37;;;;;;;;;;5084656;28;20059;-63
2023/12/18 08:49:23;;;;;;;38.97;17.00;;;;;;;;;;5085614;28;20456;-59
2023/12/18 08:51:49;;;;;;;39.40;16.50;;;;;;;;;;5086432;28;20119;-60
2023/12/18 08:54:14;;;;;;;39.37;17.83;;;;;;;;;;5085502;28;20040;-60
2023/12/18 08:56:39;;;;;;;47.40;18.87;;;;;;;;;;5086426;28;20031;-61
2023/12/18 08:59:04;;;;;;;40.67;17.50;;;;;;;;;;5084149;28;20037;-61
2023/12/18 09:01:30;;;;;;;40.83;15.90;;;;;;;;;;5083490;28;20028;-61
2023/12/18 09:03:55;;;;;;;39.43;17.63;;;;;;;;;;5086089;28;20040;-60
2023/12/18 09:06:20;;;;;;;36.70;14.63;;;;;;;;;;5086318;28;20040;-61
2023/12/18 09:08:46;;;;;;;47.90;17.90;;;;;;;;;;5086355;28;20027;-61
2023/12/18 09:11:11;;;;;;;39.00;15.70;;;;;;;;;;5085053;28;20034;-61
2023/12/18 09:13:37;;;;;;;39.33;17.43;;;;;;;;;;5083418;28;20024;-60
2023/12/18 09:16:03;;;;;;;35.47;14.30;;;;;;;;;;5085912;28;20039;-61
2023/12/18 09:18:28;;;;;;;37.43;14.67;;;;;;;;;;5085092;28;20114;-61
2023/12/18 09:20:54;;;;;;;38.90;15.23;;;;;;;;;;5085851;28;20101;-61
2023/12/18 09:23:19;;;;;;;41.60;17.20;;;;;;;;;;5086497;28;20468;-60
2023/12/18 09:25:44;;;;;;;46.73;17.10;;;;;;;;;;5085108;28;20101;-62
2023/12/18 09:28:09;;;;;;;47.57;18.00;;;;;;;;;;5085264;28;20032;-61
2023/12/18 09:30:35;;;;;;;40.83;16.67;;;;;;;;;;5085931;28;20103;-63
2023/12/18 09:33:00;;;;;;;41.60;16.67;;;;;;;;;;5086175;28;20042;-61
2023/12/18 09:35:25;;;;;;;33.87;14.13;;;;;;;;;;5086413;28;20034;-61
2023/12/18 09:37:50;;;;;;;45.33;14.43;;;;;;;;;;5086095;28;20043;-61
2023/12/18 09:40:16;;;;;;;40.67;16.17;;;;;;;;;;5086501;28;20048;-60
2023/12/18 09:42:41;;;;;;;37.97;15.17;;;;;;;;;;5086062;28;20054;-61
2023/12/18 09:45:08;;;;;;;39.03;17.33;;;;;;;;;;5085544;28;20058;-60
2023/12/18 09:47:33;;;;;;;52.40;15.93;;;;;;;;;;5082538;28;20086;-63
2023/12/18 09:49:58;;;;;;;39.90;16.73;;;;;;;;;;5086035;28;20090;-64
2023/12/18 09:52:24;;;;;;;46.23;16.53;;;;;;;;;;5086301;28;20036;-60
2023/12/18 09:54:52;;;;;;;46.53;17.63;;;;;;;;;;5086438;28;20067;-63
2023/12/18 09:57:18;;;;;;;40.07;15.63;;;;;;;;;;5082117;28;20028;-61
2023/12/18 09:59:44;;;;;;;33.80;14.20;;;;;;;;;;5084320;28;20044;-60
2023/12/18 10:02:10;;;;;;;43.70;15.40;;;;;;;;;;5085345;28;20380;-62
2023/12/18 10:04:35;;;;;;;43.17;16.10;;;;;;;;;;5085767;28;20028;-62
2023/12/18 10:07:01;;;;;;;38.17;16.33;;;;;;;;;;5084934;28;20400;-60
2023/12/18 10:09:27;;;;;;;39.17;16.43;;;;;;;;;;5083956;28;20396;-60
2023/12/18 10:11:52;;;;;;;37.33;14.67;;;;;;;;;;5083559;28;20047;-60
2023/12/18 10:14:17;;;;;;;37.50;15.90;;;;;;;;;;5085265;28;20032;-61
2023/12/18 10:16:43;;;;;;;44.00;16.43;;;;;;;;;;5084683;28;20156;-61
2023/12/18 10:19:09;;;;;;;34.37;14.10;;;;;;;;;;5084349;28;20503;-64
2023/12/18 10:21:36;;;;;;;49.63;20.53;;;;;;;;;;5084481;28;20532;-60
2023/12/18 10:24:01;;;;;;;50.93;20.23;;;;;;;;;;5085834;28;20464;-61
2023/12/18 10:26:27;;;;;;;56.27;21.43;;;;;;;;;;5084568;28;20093;-61
2023/12/18 10:28:52;;;;;;;42.93;17.67;;;;;;;;;;5085723;28;20028;-61
2023/12/18 10:31:18;;;;;;;50.70;17.37;;;;;;;;;;5085026;28;22181;-60
2023/12/18 10:33:43;;;;;;;43.93;18.50;;;;;;;;;;5085321;28;20037;-60
2023/12/18 10:36:09;;;;;;;39.60;15.43;;;;;;;;;;5085219;28;20067;-60
2023/12/18 10:38:36;;;;;;;44.03;16.53;;;;;;;;;;5085305;28;20117;-61
2023/12/18 10:41:03;;;;;;;53.50;18.77;;;;;;;;;;5085062;28;20468;-60
2023/12/18 10:43:30;;;;;;;43.07;16.00;;;;;;;;;;5085451;28;20032;-60
2023/12/18 10:45:56;;;;;;;44.70;17.73;;;;;;;;;;5085790;28;20553;-60
2023/12/18 10:48:24;;;;;;;46.20;16.57;;;;;;;;;;5083935;28;20032;-61
2023/12/18 10:50:51;;;;;;;34.97;13.33;;;;;;;;;;5084324;28;20714;-61
2023/12/18 10:53:17;;;;;;;40.17;16.90;;;;;;;;;;5084794;28;20092;-61
2023/12/18 10:55:43;;;;;;;37.97;14.30;;;;;;;;;;5084736;28;20092;-62
2023/12/18 10:58:10;;;;;;;51.67;18.60;;;;;;;;;;5081433;28;20491;-60
2023/12/18 11:00:35;;;;;;;38.53;16.00;;;;;;;;;;5085368;28;20093;-62
2023/12/18 11:03:01;;;;;;;44.27;17.97;;;;;;;;;;5083982;28;20135;-62
2023/12/18 11:05:26;;;;;;;47.57;17.60;;;;;;;;;;5084278;28;20044;-62
2023/12/18 11:07:52;;;;;;;39.53;14.07;;;;;;;;;;5084279;28;20039;-63
2023/12/18 11:10:18;;;;;;;45.80;18.10;;;;;;;;;;5086339;28;20254;-62
2023/12/18 11:12:43;;;;;;;49.53;19.63;;;;;;;;;;5088167;28;20036;-63
2023/12/18 11:15:08;;;;;;;43.60;16.40;;;;;;;;;;5085031;28;20074;-62
2023/12/18 11:17:36;;;;;;;45.93;17.83;;;;;;;;;;5088991;28;20024;-62
2023/12/18 11:20:07;;;;;;;40.33;15.03;;;;;;;;;;5086250;28;20032;-62
2023/12/18 11:22:42;;;;;;;41.17;16.40;;;;;;;;;;5084966;28;20330;-62
2023/12/18 11:25:08;;;;;;;40.47;15.90;;;;;;;;;;5087731;28;20032;-63
2023/12/18 11:27:34;;;;;;;42.83;16.57;;;;;;;;;;5087652;28;20028;-62
2023/12/18 11:30:00;;;;;;;41.57;15.30;;;;;;;;;;5088595;28;20039;-62
2023/12/18 11:32:42;;;;;;;33.63;13.83;;;;;;;;;;5088624;28;20517;-63
2023/12/18 11:35:13;;;;;;;35.25;13.57;;;;;;;;;;5087692;28;20082;-62
2023/12/18 11:37:38;;;;;;;;;;;;;;;;;;5088666;28;20067;-62
2023/12/18 11:40:04;;;;;;;38.60;13.45;;;;;;;;;;5092202;28;19923;-63
2023/12/18 11:42:45;;;;;;;32.97;13.43;;;;;;;;;;5086052;28;20056;-63
2023/12/18 11:45:10;;;;;;;39.10;15.18;;;;;;;;;;5090784;28;20503;-62
2023/12/18 11:47:36;;;;;;;41.03;15.17;;;;;;;;;;5095947;28;20027;-63
2023/12/18 11:50:01;;;;;;;33.33;12.60;;;;;;;;;;5091385;28;20106;-65
2023/12/18 11:52:26;;;;;;;31.73;12.60;;;;;;;;;;5086488;28;20034;-64
2023/12/18 11:54:51;;;;;;;37.10;15.70;;;;;;;;;;5089996;28;20024;-64
2023/12/18 11:57:21;;;;;;;37.67;14.33;;;;;;;;;;5094469;28;20301;-64
2023/12/18 11:59:46;;;;;;;47.53;16.27;;;;;;;;;;5085408;28;20034;-64
2023/12/18 12:02:12;;;;;;;43.83;15.77;;;;;;;;;;5083418;28;20040;-64
2023/12/18 12:04:39;;;;;;;28.47;11.50;;;;;;;;;;5083588;28;20033;-64
2023/12/18 12:07:04;;;;;;;37.93;13.70;;;;;;;;;;5086167;28;20173;-64
2023/12/18 12:09:29;;;;;;;46.30;15.83;;;;;;;;;;5083497;28;20064;-64
2023/12/18 12:11:55;;;;;;;36.43;14.60;;;;;;;;;;5083301;28;20518;-61
2023/12/18 12:14:20;;;;;;;40.17;15.57;;;;;;;;;;5084224;28;20103;-62
2023/12/18 12:16:45;;;;;;;40.47;15.13;;;;;;;;;;5087472;28;20024;-62
2023/12/18 12:19:11;;;;;;;42.33;15.73;;;;;;;;;;5090467;28;20070;-62
2023/12/18 12:21:36;;;;;;;33.57;14.73;;;;;;;;;;5089649;28;20032;-62
2023/12/18 12:24:02;;;;;;;36.53;14.67;;;;;;;;;;5084114;28;20032;-62
2023/12/18 12:26:27;;;;;;;41.73;15.33;;;;;;;;;;5085315;28;20107;-63
2023/12/18 12:28:52;;;;;;;41.17;16.27;;;;;;;;;;5094542;28;20112;-62
2023/12/18 12:31:19;;;;;;;33.40;13.50;;;;;;;;;;5094204;28;20028;-62
2023/12/18 12:33:45;;;;;;;35.97;13.30;;;;;;;;;;5089875;28;20085;-62
2023/12/18 12:36:14;;;;;;;37.90;13.63;;;;;;;;;;5084816;28;20376;-62
2023/12/18 12:38:40;;;;;;;42.10;17.30;;;;;;;;;;5086389;28;20036;-62
2023/12/18 12:41:05;;;;;;;45.83;16.80;;;;;;;;;;5087066;28;20039;-63
2023/12/18 12:43:31;;;;;;;34.63;12.07;;;;;;;;;;5086798;28;20032;-62
2023/12/18 12:45:56;;;;;;;49.23;16.43;;;;;;;;;;5088913;28;20483;-62
2023/12/18 12:48:22;;;;;;;39.63;17.53;;;;;;;;;;5085640;28;20369;-62
2023/12/18 12:50:48;;;;;;;46.47;16.53;;;;;;;;;;5086359;28;20040;-62
2023/12/18 12:53:14;;;;;;;40.70;14.87;;;;;;;;;;5085884;28;20020;-62
2023/12/18 12:55:40;;;;;;;36.13;14.40;;;;;;;;;;5081504;28;20058;-62
2023/12/18 12:58:06;;;;;;;47.83;18.83;;;;;;;;;;5085954;28;20479;-62
2023/12/18 13:00:31;;;;;;;46.93;16.57;;;;;;;;;;5086686;28;20059;-62
2023/12/18 13:02:57;;;;;;;35.10;15.47;;;;;;;;;;5085864;28;20065;-62
2023/12/18 13:05:22;;;;;;;29.57;11.87;;;;;;;;;;5086769;28;20038;-62
2023/12/18 13:07:50;;;;;;;33.97;14.57;;;;;;;;;;5086155;28;20111;-62
2023/12/18 13:10:16;;;;;;;39.37;15.67;;;;;;;;;;5086232;28;20024;-62
2023/12/18 13:12:41;;;;;;;45.53;17.03;;;;;;;;;;5085422;28;20495;-62
2023/12/18 13:15:07;;;;;;;45.20;16.27;;;;;;;;;;5083260;28;20108;-63
2023/12/18 13:17:32;;;;;;;32.60;13.37;;;;;;;;;;5086087;28;20032;-62
2023/12/18 13:19:57;;;;;;;43.67;16.47;;;;;;;;;;5084863;28;20039;-62
2023/12/18 13:22:22;;;;;;;40.43;17.30;;;;;;;;;;5085361;28;20539;-62
2023/12/18 13:24:48;;;;;;;35.83;15.00;;;;;;;;;;5084569;28;20032;-62
2023/12/18 13:27:21;;;;;;;37.47;15.23;;;;;;;;;;5086288;28;20071;-66
2023/12/18 13:29:47;;;;;;;45.97;16.97;;;;;;;;;;5086081;28;20032;-63
2023/12/18 13:32:12;;;;;;;29.03;12.00;;;;;;;;;;5084522;28;20035;-63
2023/12/18 13:34:38;;;;;;;45.80;16.57;;;;;;;;;;5085285;28;20024;-63
2023/12/18 13:37:06;;;;;;;36.70;14.87;;;;;;;;;;5085527;28;20028;-63
2023/12/18 13:39:31;;;;;;;42.90;15.97;;;;;;;;;;5082862;28;20113;-64
2023/12/18 13:41:59;;;;;;;41.43;15.73;;;;;;;;;;5084078;28;20024;-63
2023/12/18 13:44:25;;;;;;;54.80;17.37;;;;;;;;;;5087721;28;20035;-63
2023/12/18 13:46:50;;;;;;;40.90;16.23;;;;;;;;;;5085493;28;20032;-64
2023/12/18 13:49:16;;;;;;;36.80;15.33;;;;;;;;;;5085378;28;20165;-63
2023/12/18 13:51:42;;;;;;;34.23;12.93;;;;;;;;;;5085752;28;20039;-63
2023/12/18 13:54:07;;;;;;;41.53;15.67;;;;;;;;;;5081774;28;20047;-63
2023/12/18 13:56:33;;;;;;;41.33;15.47;;;;;;;;;;5085215;28;20508;-63
2023/12/18 13:59:01;;;;;;;44.80;17.10;;;;;;;;;;5084764;28;20036;-63
2023/12/18 14:01:26;;;;;;;41.40;16.40;;;;;;;;;;5084770;28;20039;-64
2023/12/18 14:03:54;;;;;;;41.97;17.73;;;;;;;;;;5083663;28;20036;-63
2023/12/18 14:06:20;;;;;;;39.43;16.67;;;;;;;;;;5085279;28;20040;-64
2023/12/18 14:08:45;;;;;;;30.27;13.47;;;;;;;;;;5083036;28;20111;-64